sensor_id;sensor_type;location;lat;lon;timestamp;P1;durP1;ratioP1;P2;durP2;ratioP2
25023;SDS011;13033;50.936;5.334;2023-02-11T00:01:51;44.28;;;24.20;;
25023;SDS011;13033;50.936;5.334;2023-02-11T00:04:17;42.30;;;24.20;;
25023;SDS011;13033;50.936;5.334;2023-02-11T00:06:42;48.45;;;25.20;;
25023;SDS011;13033;50.936;5.334;2023-02-11T00:09:08;44.28;;;24.63;;
25023;SDS011;13033;50.936;5.334;2023-02-11T00:11:35;46.97;;;25.25;;
25023;SDS011;13033;50.936;5.334;2023-02-11T00:14:02;42.63;;;24.80;;
25023;SDS011;13033;50.936;5.334;2023-02-11T00:16:30;44.72;;;24.77;;
25023;SDS011;13033;50.936;5.334;2023-02-11T00:18:58;48.83;;;24.63;;
25023;SDS011;13033;50.936;5.334;2023-02-11T00:21:25;49.25;;;24.70;;
25023;SDS011;13033;50.936;5.334;2023-02-11T00:23:51;45.25;;;24.45;;
25023;SDS011;13033;50.936;5.334;2023-02-11T00:26:20;44.47;;;24.25;;
25023;SDS011;13033;50.936;5.334;2023-02-11T00:31:17;44.25;;;23.05;;
25023;SDS011;13033;50.936;5.334;2023-02-11T00:33:44;53.45;;;24.63;;
25023;SDS011;13033;50.936;5.334;2023-02-11T00:36:12;40.78;;;23.50;;
25023;SDS011;13033;50.936;5.334;2023-02-11T00:38:45;42.00;;;22.67;;
25023;SDS011;13033;50.936;5.334;2023-02-11T00:41:12;44.72;;;22.55;;
25023;SDS011;13033;50.936;5.334;2023-02-11T00:43:39;39.15;;;20.85;;
25023;SDS011;13033;50.936;5.334;2023-02-11T00:46:05;40.28;;;21.38;;
25023;SDS011;13033;50.936;5.334;2023-02-11T00:48:32;43.53;;;21.85;;
25023;SDS011;13033;50.936;5.334;2023-02-11T00:50:58;36.58;;;20.83;;
25023;SDS011;13033;50.936;5.334;2023-02-11T00:53:24;38.83;;;21.77;;
25023;SDS011;13033;50.936;5.334;2023-02-11T00:55:49;38.88;;;20.80;;
25023;SDS011;13033;50.936;5.334;2023-02-11T00:58:15;38.88;;;21.10;;
25023;SDS011;13033;50.936;5.334;2023-02-11T01:00:41;38.90;;;20.88;;
25023;SDS011;13033;50.936;5.334;2023-02-11T01:03:06;36.25;;;20.65;;
25023;SDS011;13033;50.936;5.334;2023-02-11T01:05:32;43.47;;;21.33;;
25023;SDS011;13033;50.936;5.334;2023-02-11T01:07:58;38.63;;;19.88;;
25023;SDS011;13033;50.936;5.334;2023-02-11T01:10:24;39.03;;;20.23;;
25023;SDS011;13033;50.936;5.334;2023-02-11T01:12:49;37.30;;;20.15;;
25023;SDS011;13033;50.936;5.334;2023-02-11T01:15:16;36.35;;;18.50;;
25023;SDS011;13033;50.936;5.334;2023-02-11T01:17:43;37.63;;;19.95;;
25023;SDS011;13033;50.936;5.334;2023-02-11T01:20:19;36.85;;;19.63;;
25023;SDS011;13033;50.936;5.334;2023-02-11T01:22:47;39.85;;;19.73;;
25023;SDS011;13033;50.936;5.334;2023-02-11T01:25:13;37.75;;;18.77;;
25023;SDS011;13033;50.936;5.334;2023-02-11T01:27:39;36.78;;;19.48;;
25023;SDS011;13033;50.936;5.334;2023-02-11T01:30:05;36.83;;;18.83;;
25023;SDS011;13033;50.936;5.334;2023-02-11T01:32:32;37.03;;;19.27;;
25023;SDS011;13033;50.936;5.334;2023-02-11T01:34:58;38.08;;;19.80;;
25023;SDS011;13033;50.936;5.334;2023-02-11T01:37:24;40.13;;;19.67;;
25023;SDS011;13033;50.936;5.334;2023-02-11T01:39:50;38.58;;;19.42;;
25023;SDS011;13033;50.936;5.334;2023-02-11T01:42:20;38.97;;;19.80;;
25023;SDS011;13033;50.936;5.334;2023-02-11T01:44:51;42.58;;;20.25;;
25023;SDS011;13033;50.936;5.334;2023-02-11T01:47:18;37.30;;;19.15;;
25023;SDS011;13033;50.936;5.334;2023-02-11T01:49:46;35.15;;;17.23;;
25023;SDS011;13033;50.936;5.334;2023-02-11T01:52:33;39.63;;;19.10;;
25023;SDS011;13033;50.936;5.334;2023-02-11T01:55:03;31.80;;;17.80;;
25023;SDS011;13033;50.936;5.334;2023-02-11T01:57:51;39.78;;;18.35;;
25023;SDS011;13033;50.936;5.334;2023-02-11T02:03:01;31.55;;;17.52;;
25023;SDS011;13033;50.936;5.334;2023-02-11T02:08:39;35.00;;;17.05;;
25023;SDS011;13033;50.936;5.334;2023-02-11T02:11:35;30.20;;;16.63;;
25023;SDS011;13033;50.936;5.334;2023-02-11T02:14:02;32.88;;;16.65;;
25023;SDS011;13033;50.936;5.334;2023-02-11T02:16:32;33.05;;;15.63;;
25023;SDS011;13033;50.936;5.334;2023-02-11T02:40:48;35.05;;;16.63;;
25023;SDS011;13033;50.936;5.334;2023-02-11T02:43:25;40.97;;;16.15;;
25023;SDS011;13033;50.936;5.334;2023-02-11T02:45:52;29.67;;;15.63;;
25023;SDS011;13033;50.936;5.334;2023-02-11T02:48:29;32.08;;;15.20;;
25023;SDS011;13033;50.936;5.334;2023-02-11T02:57:03;34.95;;;14.95;;
25023;SDS011;13033;50.936;5.334;2023-02-11T03:07:55;32.45;;;14.50;;
25023;SDS011;13033;50.936;5.334;2023-02-11T03:10:48;26.52;;;13.70;;
25023;SDS011;13033;50.936;5.334;2023-02-11T03:13:15;26.80;;;13.85;;
25023;SDS011;13033;50.936;5.334;2023-02-11T03:15:47;30.02;;;14.55;;
25023;SDS011;13033;50.936;5.334;2023-02-11T03:18:16;28.80;;;14.10;;
25023;SDS011;13033;50.936;5.334;2023-02-11T03:20:48;28.25;;;13.05;;
25023;SDS011;13033;50.936;5.334;2023-02-11T03:23:18;30.33;;;14.55;;
25023;SDS011;13033;50.936;5.334;2023-02-11T03:25:56;39.67;;;14.65;;
25023;SDS011;13033;50.936;5.334;2023-02-11T03:28:50;27.17;;;12.55;;
25023;SDS011;13033;50.936;5.334;2023-02-11T03:31:44;28.77;;;13.63;;
25023;SDS011;13033;50.936;5.334;2023-02-11T03:34:18;29.42;;;13.15;;
25023;SDS011;13033;50.936;5.334;2023-02-11T03:37:01;29.85;;;13.82;;
25023;SDS011;13033;50.936;5.334;2023-02-11T03:39:41;29.33;;;14.07;;
25023;SDS011;13033;50.936;5.334;2023-02-11T03:42:11;27.00;;;12.68;;
25023;SDS011;13033;50.936;5.334;2023-02-11T03:44:43;28.15;;;13.25;;
25023;SDS011;13033;50.936;5.334;2023-02-11T03:47:14;29.42;;;12.95;;
25023;SDS011;13033;50.936;5.334;2023-02-11T03:49:44;28.63;;;12.13;;
25023;SDS011;13033;50.936;5.334;2023-02-11T03:52:13;29.77;;;13.45;;
25023;SDS011;13033;50.936;5.334;2023-02-11T03:54:41;30.05;;;12.65;;
25023;SDS011;13033;50.936;5.334;2023-02-11T03:57:09;29.33;;;13.50;;
25023;SDS011;13033;50.936;5.334;2023-02-11T03:59:53;26.65;;;13.10;;
25023;SDS011;13033;50.936;5.334;2023-02-11T04:02:21;25.25;;;12.98;;
25023;SDS011;13033;50.936;5.334;2023-02-11T04:04:49;28.75;;;13.70;;
25023;SDS011;13033;50.936;5.334;2023-02-11T04:07:15;24.05;;;12.23;;
25023;SDS011;13033;50.936;5.334;2023-02-11T04:09:41;30.85;;;13.65;;
25023;SDS011;13033;50.936;5.334;2023-02-11T04:12:07;25.75;;;12.65;;
25023;SDS011;13033;50.936;5.334;2023-02-11T04:14:32;27.10;;;13.50;;
25023;SDS011;13033;50.936;5.334;2023-02-11T04:16:58;32.40;;;13.68;;
25023;SDS011;13033;50.936;5.334;2023-02-11T04:19:24;33.67;;;14.48;;
25023;SDS011;13033;50.936;5.334;2023-02-11T04:21:49;30.00;;;13.80;;
25023;SDS011;13033;50.936;5.334;2023-02-11T04:24:15;28.20;;;14.13;;
25023;SDS011;13033;50.936;5.334;2023-02-11T04:26:41;33.22;;;14.55;;
25023;SDS011;13033;50.936;5.334;2023-02-11T04:29:06;35.22;;;14.82;;
25023;SDS011;13033;50.936;5.334;2023-02-11T04:31:32;34.60;;;14.00;;
25023;SDS011;13033;50.936;5.334;2023-02-11T04:33:58;31.75;;;13.75;;
25023;SDS011;13033;50.936;5.334;2023-02-11T04:36:23;38.63;;;14.55;;
25023;SDS011;13033;50.936;5.334;2023-02-11T04:38:49;32.10;;;14.35;;
25023;SDS011;13033;50.936;5.334;2023-02-11T04:41:14;33.92;;;14.43;;
25023;SDS011;13033;50.936;5.334;2023-02-11T04:43:40;33.13;;;13.90;;
25023;SDS011;13033;50.936;5.334;2023-02-11T04:46:06;30.25;;;14.00;;
25023;SDS011;13033;50.936;5.334;2023-02-11T04:48:31;32.42;;;14.02;;
25023;SDS011;13033;50.936;5.334;2023-02-11T04:50:59;34.05;;;14.50;;
25023;SDS011;13033;50.936;5.334;2023-02-11T04:53:25;31.02;;;15.05;;
25023;SDS011;13033;50.936;5.334;2023-02-11T04:55:50;30.75;;;14.60;;
25023;SDS011;13033;50.936;5.334;2023-02-11T04:58:17;35.30;;;15.45;;
25023;SDS011;13033;50.936;5.334;2023-02-11T05:00:43;31.58;;;14.85;;
25023;SDS011;13033;50.936;5.334;2023-02-11T05:03:08;23.88;;;13.82;;
25023;SDS011;13033;50.936;5.334;2023-02-11T05:05:36;24.98;;;13.00;;
25023;SDS011;13033;50.936;5.334;2023-02-11T05:08:04;36.35;;;15.82;;
25023;SDS011;13033;50.936;5.334;2023-02-11T05:10:30;32.53;;;14.70;;
25023;SDS011;13033;50.936;5.334;2023-02-11T05:12:56;29.20;;;15.20;;
25023;SDS011;13033;50.936;5.334;2023-02-11T05:15:21;35.08;;;15.38;;
25023;SDS011;13033;50.936;5.334;2023-02-11T05:17:47;29.88;;;16.23;;
25023;SDS011;13033;50.936;5.334;2023-02-11T05:20:13;31.30;;;15.43;;
25023;SDS011;13033;50.936;5.334;2023-02-11T05:22:39;33.05;;;15.90;;
25023;SDS011;13033;50.936;5.334;2023-02-11T05:25:04;35.28;;;15.77;;
25023;SDS011;13033;50.936;5.334;2023-02-11T05:27:30;40.35;;;16.13;;
25023;SDS011;13033;50.936;5.334;2023-02-11T05:29:56;39.78;;;17.48;;
25023;SDS011;13033;50.936;5.334;2023-02-11T05:32:21;34.63;;;16.88;;
25023;SDS011;13033;50.936;5.334;2023-02-11T05:34:47;35.92;;;15.88;;
25023;SDS011;13033;50.936;5.334;2023-02-11T05:37:13;36.28;;;17.08;;
25023;SDS011;13033;50.936;5.334;2023-02-11T05:39:38;40.22;;;18.45;;
25023;SDS011;13033;50.936;5.334;2023-02-11T05:42:04;41.90;;;17.85;;
25023;SDS011;13033;50.936;5.334;2023-02-11T05:44:30;38.30;;;17.25;;
25023;SDS011;13033;50.936;5.334;2023-02-11T05:46:56;35.90;;;17.85;;
25023;SDS011;13033;50.936;5.334;2023-02-11T05:49:21;39.72;;;19.00;;
25023;SDS011;13033;50.936;5.334;2023-02-11T05:51:47;41.72;;;19.33;;
25023;SDS011;13033;50.936;5.334;2023-02-11T05:54:13;42.42;;;19.77;;
25023;SDS011;13033;50.936;5.334;2023-02-11T05:56:38;38.83;;;18.25;;
25023;SDS011;13033;50.936;5.334;2023-02-11T05:59:04;37.05;;;18.98;;
25023;SDS011;13033;50.936;5.334;2023-02-11T06:01:30;37.38;;;19.20;;
25023;SDS011;13033;50.936;5.334;2023-02-11T06:03:55;41.63;;;20.02;;
25023;SDS011;13033;50.936;5.334;2023-02-11T06:06:21;40.17;;;20.80;;
25023;SDS011;13033;50.936;5.334;2023-02-11T06:08:47;52.83;;;20.55;;
25023;SDS011;13033;50.936;5.334;2023-02-11T06:11:15;52.08;;;21.65;;
25023;SDS011;13033;50.936;5.334;2023-02-11T06:13:42;37.88;;;18.45;;
25023;SDS011;13033;50.936;5.334;2023-02-11T06:16:08;47.30;;;21.75;;
25023;SDS011;13033;50.936;5.334;2023-02-11T06:18:34;55.90;;;23.02;;
25023;SDS011;13033;50.936;5.334;2023-02-11T06:20:59;45.33;;;21.95;;
25023;SDS011;13033;50.936;5.334;2023-02-11T06:23:25;46.58;;;21.08;;
25023;SDS011;13033;50.936;5.334;2023-02-11T06:25:51;45.25;;;20.48;;
25023;SDS011;13033;50.936;5.334;2023-02-11T06:28:17;55.67;;;22.65;;
25023;SDS011;13033;50.936;5.334;2023-02-11T06:30:43;50.33;;;23.52;;
25023;SDS011;13033;50.936;5.334;2023-02-11T06:33:09;48.42;;;23.33;;
25023;SDS011;13033;50.936;5.334;2023-02-11T06:35:36;43.50;;;22.88;;
25023;SDS011;13033;50.936;5.334;2023-02-11T06:38:03;46.20;;;22.00;;
25023;SDS011;13033;50.936;5.334;2023-02-11T06:40:28;58.90;;;23.42;;
25023;SDS011;13033;50.936;5.334;2023-02-11T06:42:54;53.30;;;23.52;;
25023;SDS011;13033;50.936;5.334;2023-02-11T06:45:19;48.45;;;22.92;;
25023;SDS011;13033;50.936;5.334;2023-02-11T06:47:45;54.85;;;24.05;;
25023;SDS011;13033;50.936;5.334;2023-02-11T06:50:12;53.50;;;23.33;;
25023;SDS011;13033;50.936;5.334;2023-02-11T06:52:39;56.38;;;23.83;;
25023;SDS011;13033;50.936;5.334;2023-02-11T06:55:05;57.30;;;24.02;;
25023;SDS011;13033;50.936;5.334;2023-02-11T06:57:31;50.17;;;23.15;;
25023;SDS011;13033;50.936;5.334;2023-02-11T06:59:56;51.50;;;24.60;;
25023;SDS011;13033;50.936;5.334;2023-02-11T07:02:22;46.08;;;22.60;;
25023;SDS011;13033;50.936;5.334;2023-02-11T07:04:48;46.10;;;23.15;;
25023;SDS011;13033;50.936;5.334;2023-02-11T07:07:13;54.88;;;24.88;;
25023;SDS011;13033;50.936;5.334;2023-02-11T07:09:39;51.63;;;24.38;;
25023;SDS011;13033;50.936;5.334;2023-02-11T07:12:05;47.92;;;23.00;;
25023;SDS011;13033;50.936;5.334;2023-02-11T07:14:33;52.42;;;24.70;;
25023;SDS011;13033;50.936;5.334;2023-02-11T07:16:59;55.35;;;24.70;;
25023;SDS011;13033;50.936;5.334;2023-02-11T07:19:24;50.70;;;25.25;;
25023;SDS011;13033;50.936;5.334;2023-02-11T07:21:50;59.35;;;26.30;;
25023;SDS011;13033;50.936;5.334;2023-02-11T07:24:15;53.60;;;24.92;;
25023;SDS011;13033;50.936;5.334;2023-02-11T07:26:41;56.95;;;24.90;;
25023;SDS011;13033;50.936;5.334;2023-02-11T07:29:07;51.50;;;25.77;;
25023;SDS011;13033;50.936;5.334;2023-02-11T07:31:32;56.80;;;25.88;;
25023;SDS011;13033;50.936;5.334;2023-02-11T07:33:59;58.35;;;26.13;;
25023;SDS011;13033;50.936;5.334;2023-02-11T07:36:26;52.92;;;26.63;;
25023;SDS011;13033;50.936;5.334;2023-02-11T07:38:53;61.05;;;26.23;;
25023;SDS011;13033;50.936;5.334;2023-02-11T07:41:19;62.33;;;27.15;;
25023;SDS011;13033;50.936;5.334;2023-02-11T07:43:47;59.35;;;27.58;;
25023;SDS011;13033;50.936;5.334;2023-02-11T07:46:14;61.40;;;27.55;;
25023;SDS011;13033;50.936;5.334;2023-02-11T07:48:44;54.05;;;27.05;;
25023;SDS011;13033;50.936;5.334;2023-02-11T07:51:11;55.15;;;27.58;;
25023;SDS011;13033;50.936;5.334;2023-02-11T07:53:39;59.88;;;28.60;;
25023;SDS011;13033;50.936;5.334;2023-02-11T07:56:05;63.72;;;28.20;;
25023;SDS011;13033;50.936;5.334;2023-02-11T07:58:32;70.85;;;30.42;;
25023;SDS011;13033;50.936;5.334;2023-02-11T08:01:08;67.63;;;29.75;;
25023;SDS011;13033;50.936;5.334;2023-02-11T08:03:36;70.60;;;30.40;;
25023;SDS011;13033;50.936;5.334;2023-02-11T08:06:06;68.78;;;29.25;;
25023;SDS011;13033;50.936;5.334;2023-02-11T08:08:33;69.93;;;29.65;;
25023;SDS011;13033;50.936;5.334;2023-02-11T08:11:09;65.07;;;31.75;;
25023;SDS011;13033;50.936;5.334;2023-02-11T08:13:35;68.82;;;31.98;;
25023;SDS011;13033;50.936;5.334;2023-02-11T08:16:02;73.22;;;32.22;;
25023;SDS011;13033;50.936;5.334;2023-02-11T08:18:29;73.13;;;30.88;;
25023;SDS011;13033;50.936;5.334;2023-02-11T08:20:55;82.50;;;32.53;;
25023;SDS011;13033;50.936;5.334;2023-02-11T08:23:21;69.70;;;31.50;;
25023;SDS011;13033;50.936;5.334;2023-02-11T08:25:47;69.80;;;30.67;;
25023;SDS011;13033;50.936;5.334;2023-02-11T08:28:12;74.78;;;33.53;;
25023;SDS011;13033;50.936;5.334;2023-02-11T08:30:38;76.07;;;33.47;;
25023;SDS011;13033;50.936;5.334;2023-02-11T08:33:03;71.55;;;32.28;;
25023;SDS011;13033;50.936;5.334;2023-02-11T08:35:29;82.00;;;32.30;;
25023;SDS011;13033;50.936;5.334;2023-02-11T08:37:55;78.60;;;32.78;;
25023;SDS011;13033;50.936;5.334;2023-02-11T08:40:21;70.28;;;31.88;;
25023;SDS011;13033;50.936;5.334;2023-02-11T08:42:51;82.93;;;32.95;;
25023;SDS011;13033;50.936;5.334;2023-02-11T08:45:17;73.68;;;32.75;;
25023;SDS011;13033;50.936;5.334;2023-02-11T08:47:43;68.75;;;30.88;;
25023;SDS011;13033;50.936;5.334;2023-02-11T08:50:08;74.57;;;33.17;;
25023;SDS011;13033;50.936;5.334;2023-02-11T08:52:34;79.57;;;32.42;;
25023;SDS011;13033;50.936;5.334;2023-02-11T08:55:00;78.65;;;32.97;;
25023;SDS011;13033;50.936;5.334;2023-02-11T08:57:26;72.22;;;32.10;;
25023;SDS011;13033;50.936;5.334;2023-02-11T08:59:51;70.28;;;32.60;;
25023;SDS011;13033;50.936;5.334;2023-02-11T09:02:17;76.22;;;34.17;;
25023;SDS011;13033;50.936;5.334;2023-02-11T09:04:43;72.78;;;32.40;;
25023;SDS011;13033;50.936;5.334;2023-02-11T09:07:08;76.72;;;31.95;;
25023;SDS011;13033;50.936;5.334;2023-02-11T09:09:34;76.47;;;32.95;;
25023;SDS011;13033;50.936;5.334;2023-02-11T09:12:00;79.22;;;34.30;;
25023;SDS011;13033;50.936;5.334;2023-02-11T09:14:26;76.80;;;31.52;;
25023;SDS011;13033;50.936;5.334;2023-02-11T09:16:51;74.32;;;34.42;;
25023;SDS011;13033;50.936;5.334;2023-02-11T09:19:17;74.65;;;33.17;;
25023;SDS011;13033;50.936;5.334;2023-02-11T09:21:44;85.18;;;33.97;;
25023;SDS011;13033;50.936;5.334;2023-02-11T09:24:10;83.55;;;36.47;;
25023;SDS011;13033;50.936;5.334;2023-02-11T09:26:36;86.55;;;36.10;;
25023;SDS011;13033;50.936;5.334;2023-02-11T09:29:02;86.95;;;36.03;;
25023;SDS011;13033;50.936;5.334;2023-02-11T09:31:30;92.82;;;35.47;;
25023;SDS011;13033;50.936;5.334;2023-02-11T09:33:58;85.15;;;36.63;;
25023;SDS011;13033;50.936;5.334;2023-02-11T09:36:26;88.68;;;36.80;;
25023;SDS011;13033;50.936;5.334;2023-02-11T09:38:54;81.82;;;34.92;;
25023;SDS011;13033;50.936;5.334;2023-02-11T09:43:47;79.53;;;36.40;;
25023;SDS011;13033;50.936;5.334;2023-02-11T09:46:16;82.75;;;35.80;;
25023;SDS011;13033;50.936;5.334;2023-02-11T09:48:45;81.25;;;37.08;;
25023;SDS011;13033;50.936;5.334;2023-02-11T09:51:21;78.38;;;36.10;;
25023;SDS011;13033;50.936;5.334;2023-02-11T09:53:56;83.90;;;34.70;;
25023;SDS011;13033;50.936;5.334;2023-02-11T09:56:24;81.47;;;34.97;;
25023;SDS011;13033;50.936;5.334;2023-02-11T09:58:51;80.25;;;32.78;;
25023;SDS011;13033;50.936;5.334;2023-02-11T10:14:59;85.38;;;36.90;;
25023;SDS011;13033;50.936;5.334;2023-02-11T10:23:28;83.70;;;36.15;;
25023;SDS011;13033;50.936;5.334;2023-02-11T10:25:58;80.65;;;36.33;;
25023;SDS011;13033;50.936;5.334;2023-02-11T10:28:33;95.30;;;37.97;;
25023;SDS011;13033;50.936;5.334;2023-02-11T10:33:50;88.75;;;37.22;;
25023;SDS011;13033;50.936;5.334;2023-02-11T10:36:20;86.57;;;37.47;;
25023;SDS011;13033;50.936;5.334;2023-02-11T10:38:49;86.18;;;36.22;;
25023;SDS011;13033;50.936;5.334;2023-02-11T10:41:16;96.28;;;39.20;;
25023;SDS011;13033;50.936;5.334;2023-02-11T10:43:45;98.78;;;39.83;;
25023;SDS011;13033;50.936;5.334;2023-02-11T10:46:14;84.85;;;36.70;;
25023;SDS011;13033;50.936;5.334;2023-02-11T10:48:50;83.38;;;36.90;;
25023;SDS011;13033;50.936;5.334;2023-02-11T10:51:27;91.63;;;37.92;;
25023;SDS011;13033;50.936;5.334;2023-02-11T10:56:39;80.18;;;36.35;;
25023;SDS011;13033;50.936;5.334;2023-02-11T11:01:58;79.90;;;35.97;;
25023;SDS011;13033;50.936;5.334;2023-02-11T11:06:56;77.35;;;37.10;;
25023;SDS011;13033;50.936;5.334;2023-02-11T11:09:43;88.47;;;35.60;;
25023;SDS011;13033;50.936;5.334;2023-02-11T11:14:56;88.68;;;37.30;;
25023;SDS011;13033;50.936;5.334;2023-02-11T11:17:23;86.82;;;37.58;;
25023;SDS011;13033;50.936;5.334;2023-02-11T11:19:53;77.40;;;35.47;;
25023;SDS011;13033;50.936;5.334;2023-02-11T11:22:38;89.30;;;37.75;;
25023;SDS011;13033;50.936;5.334;2023-02-11T11:25:05;83.47;;;36.47;;
25023;SDS011;13033;50.936;5.334;2023-02-11T11:27:50;82.53;;;37.05;;
25023;SDS011;13033;50.936;5.334;2023-02-11T11:30:18;80.55;;;36.22;;
25023;SDS011;13033;50.936;5.334;2023-02-11T11:32:44;92.57;;;37.38;;
25023;SDS011;13033;50.936;5.334;2023-02-11T11:35:24;83.00;;;37.00;;
25023;SDS011;13033;50.936;5.334;2023-02-11T11:37:52;91.22;;;39.08;;
25023;SDS011;13033;50.936;5.334;2023-02-11T11:43:04;95.93;;;37.33;;
25023;SDS011;13033;50.936;5.334;2023-02-11T11:45:36;91.47;;;36.67;;
25023;SDS011;13033;50.936;5.334;2023-02-11T11:50:46;84.22;;;37.95;;
25023;SDS011;13033;50.936;5.334;2023-02-11T11:53:17;93.43;;;39.30;;
25023;SDS011;13033;50.936;5.334;2023-02-11T11:58:31;92.25;;;38.65;;
25023;SDS011;13033;50.936;5.334;2023-02-11T12:01:05;93.18;;;38.80;;
25023;SDS011;13033;50.936;5.334;2023-02-11T12:09:23;86.13;;;39.70;;
25023;SDS011;13033;50.936;5.334;2023-02-11T12:14:42;87.78;;;37.50;;
25023;SDS011;13033;50.936;5.334;2023-02-11T12:20:31;90.65;;;35.30;;
25023;SDS011;13033;50.936;5.334;2023-02-11T12:23:31;99.22;;;39.10;;
25023;SDS011;13033;50.936;5.334;2023-02-11T12:26:15;91.65;;;38.00;;
25023;SDS011;13033;50.936;5.334;2023-02-11T12:29:00;89.07;;;36.75;;
25023;SDS011;13033;50.936;5.334;2023-02-11T12:32:01;86.78;;;38.30;;
25023;SDS011;13033;50.936;5.334;2023-02-11T12:34:53;91.75;;;37.80;;
25023;SDS011;13033;50.936;5.334;2023-02-11T12:37:31;82.50;;;37.92;;
25023;SDS011;13033;50.936;5.334;2023-02-11T12:40:08;86.65;;;38.40;;
25023;SDS011;13033;50.936;5.334;2023-02-11T12:42:49;91.10;;;39.45;;
25023;SDS011;13033;50.936;5.334;2023-02-11T12:54:14;94.88;;;39.60;;
25023;SDS011;13033;50.936;5.334;2023-02-11T13:02:22;94.85;;;38.15;;
25023;SDS011;13033;50.936;5.334;2023-02-11T13:04:59;82.72;;;36.55;;
25023;SDS011;13033;50.936;5.334;2023-02-11T13:07:40;82.30;;;36.05;;
25023;SDS011;13033;50.936;5.334;2023-02-11T13:12:45;83.70;;;37.30;;
25023;SDS011;13033;50.936;5.334;2023-02-11T13:15:33;83.75;;;36.78;;
25023;SDS011;13033;50.936;5.334;2023-02-11T13:26:17;75.18;;;35.55;;
25023;SDS011;13033;50.936;5.334;2023-02-11T13:32:06;82.65;;;36.42;;
25023;SDS011;13033;50.936;5.334;2023-02-11T13:37:05;92.35;;;35.50;;
25023;SDS011;13033;50.936;5.334;2023-02-11T13:39:57;72.18;;;34.97;;
25023;SDS011;13033;50.936;5.334;2023-02-11T13:42:29;79.15;;;35.70;;
25023;SDS011;13033;50.936;5.334;2023-02-11T13:44:57;81.15;;;36.05;;
25023;SDS011;13033;50.936;5.334;2023-02-11T13:47:30;78.82;;;36.95;;
25023;SDS011;13033;50.936;5.334;2023-02-11T13:49:57;71.28;;;35.08;;
25023;SDS011;13033;50.936;5.334;2023-02-11T13:52:31;77.75;;;35.38;;
25023;SDS011;13033;50.936;5.334;2023-02-11T13:55:08;80.97;;;35.92;;
25023;SDS011;13033;50.936;5.334;2023-02-11T13:57:45;73.07;;;34.78;;
25023;SDS011;13033;50.936;5.334;2023-02-11T14:14:14;75.70;;;36.33;;
25023;SDS011;13033;50.936;5.334;2023-02-11T14:22:05;72.57;;;35.00;;
25023;SDS011;13033;50.936;5.334;2023-02-11T14:25:03;75.72;;;34.75;;
25023;SDS011;13033;50.936;5.334;2023-02-11T14:30:13;77.20;;;36.45;;
25023;SDS011;13033;50.936;5.334;2023-02-11T14:36:00;78.43;;;34.38;;
25023;SDS011;13033;50.936;5.334;2023-02-11T14:38:38;78.38;;;34.47;;
25023;SDS011;13033;50.936;5.334;2023-02-11T14:41:28;76.45;;;35.60;;
25023;SDS011;13033;50.936;5.334;2023-02-11T14:44:03;77.05;;;35.30;;
25023;SDS011;13033;50.936;5.334;2023-02-11T14:46:35;72.35;;;35.17;;
25023;SDS011;13033;50.936;5.334;2023-02-11T14:49:01;79.22;;;34.67;;
25023;SDS011;13033;50.936;5.334;2023-02-11T14:53:57;80.68;;;35.88;;
25023;SDS011;13033;50.936;5.334;2023-02-11T14:56:39;79.05;;;35.40;;
25023;SDS011;13033;50.936;5.334;2023-02-11T14:59:16;77.32;;;36.17;;
25023;SDS011;13033;50.936;5.334;2023-02-11T15:01:49;70.25;;;34.45;;
25023;SDS011;13033;50.936;5.334;2023-02-11T15:04:23;74.75;;;34.60;;
25023;SDS011;13033;50.936;5.334;2023-02-11T15:06:53;71.45;;;34.22;;
25023;SDS011;13033;50.936;5.334;2023-02-11T15:09:43;73.90;;;35.40;;
25023;SDS011;13033;50.936;5.334;2023-02-11T15:12:22;72.60;;;34.75;;
25023;SDS011;13033;50.936;5.334;2023-02-11T15:14:57;72.50;;;34.97;;
25023;SDS011;13033;50.936;5.334;2023-02-11T15:17:25;67.45;;;34.83;;
25023;SDS011;13033;50.936;5.334;2023-02-11T15:19:54;72.65;;;34.78;;
25023;SDS011;13033;50.936;5.334;2023-02-11T15:22:27;66.75;;;33.17;;
25023;SDS011;13033;50.936;5.334;2023-02-11T15:25:01;71.90;;;35.35;;
25023;SDS011;13033;50.936;5.334;2023-02-11T15:27:41;72.43;;;34.55;;
25023;SDS011;13033;50.936;5.334;2023-02-11T15:32:46;70.45;;;34.33;;
25023;SDS011;13033;50.936;5.334;2023-02-11T15:35:21;78.13;;;36.10;;
25023;SDS011;13033;50.936;5.334;2023-02-11T15:37:47;62.92;;;33.28;;
25023;SDS011;13033;50.936;5.334;2023-02-11T15:40:24;77.35;;;36.40;;
25023;SDS011;13033;50.936;5.334;2023-02-11T15:45:35;69.80;;;35.40;;
25023;SDS011;13033;50.936;5.334;2023-02-11T15:50:53;70.45;;;32.63;;
25023;SDS011;13033;50.936;5.334;2023-02-11T15:53:24;70.15;;;33.60;;
25023;SDS011;13033;50.936;5.334;2023-02-11T15:56:01;72.28;;;34.58;;
25023;SDS011;13033;50.936;5.334;2023-02-11T15:58:37;69.07;;;33.38;;
25023;SDS011;13033;50.936;5.334;2023-02-11T16:01:04;68.80;;;33.78;;
25023;SDS011;13033;50.936;5.334;2023-02-11T16:03:30;77.13;;;35.20;;
25023;SDS011;13033;50.936;5.334;2023-02-11T16:06:18;64.93;;;34.25;;
25023;SDS011;13033;50.936;5.334;2023-02-11T16:09:05;75.78;;;34.78;;
25023;SDS011;13033;50.936;5.334;2023-02-11T16:11:30;65.32;;;33.42;;
25023;SDS011;13033;50.936;5.334;2023-02-11T16:13:58;71.63;;;34.40;;
25023;SDS011;13033;50.936;5.334;2023-02-11T16:16:29;71.63;;;33.88;;
25023;SDS011;13033;50.936;5.334;2023-02-11T16:19:00;69.45;;;33.78;;
25023;SDS011;13033;50.936;5.334;2023-02-11T16:21:29;65.43;;;33.22;;
25023;SDS011;13033;50.936;5.334;2023-02-11T16:24:03;75.78;;;35.13;;
25023;SDS011;13033;50.936;5.334;2023-02-11T16:29:04;68.38;;;34.25;;
25023;SDS011;13033;50.936;5.334;2023-02-11T16:31:35;70.65;;;35.22;;
25023;SDS011;13033;50.936;5.334;2023-02-11T16:34:04;77.43;;;35.67;;
25023;SDS011;13033;50.936;5.334;2023-02-11T16:36:44;71.32;;;36.95;;
25023;SDS011;13033;50.936;5.334;2023-02-11T16:39:11;78.30;;;36.95;;
25023;SDS011;13033;50.936;5.334;2023-02-11T16:41:36;70.20;;;34.38;;
25023;SDS011;13033;50.936;5.334;2023-02-11T16:44:02;76.10;;;35.33;;
25023;SDS011;13033;50.936;5.334;2023-02-11T16:46:28;70.03;;;35.97;;
25023;SDS011;13033;50.936;5.334;2023-02-11T16:48:55;76.78;;;35.45;;
25023;SDS011;13033;50.936;5.334;2023-02-11T16:51:22;71.72;;;34.38;;
25023;SDS011;13033;50.936;5.334;2023-02-11T16:53:49;71.55;;;36.38;;
25023;SDS011;13033;50.936;5.334;2023-02-11T16:56:15;76.38;;;36.78;;
25023;SDS011;13033;50.936;5.334;2023-02-11T16:58:42;76.57;;;37.05;;
25023;SDS011;13033;50.936;5.334;2023-02-11T17:01:09;78.75;;;37.15;;
25023;SDS011;13033;50.936;5.334;2023-02-11T17:03:35;76.30;;;35.88;;
25023;SDS011;13033;50.936;5.334;2023-02-11T17:06:08;73.25;;;35.08;;
25023;SDS011;13033;50.936;5.334;2023-02-11T17:08:35;70.07;;;35.80;;
25023;SDS011;13033;50.936;5.334;2023-02-11T17:11:01;75.28;;;38.03;;
25023;SDS011;13033;50.936;5.334;2023-02-11T17:13:27;73.63;;;35.53;;
25023;SDS011;13033;50.936;5.334;2023-02-11T17:15:53;71.60;;;35.65;;
25023;SDS011;13033;50.936;5.334;2023-02-11T17:18:19;78.10;;;36.80;;
25023;SDS011;13033;50.936;5.334;2023-02-11T17:20:44;81.45;;;40.50;;
25023;SDS011;13033;50.936;5.334;2023-02-11T17:23:10;77.82;;;40.35;;
25023;SDS011;13033;50.936;5.334;2023-02-11T17:25:36;82.68;;;41.58;;